createdAt,value
2023-04-25T00:01:16.264Z,25.97
2023-04-25T00:03:45.433Z,23.00
2023-04-25T00:06:16.515Z,24.00
2023-04-25T00:08:45.907Z,22.57
2023-04-25T00:11:14.868Z,25.07
2023-04-25T00:13:43.882Z,19.13
2023-04-25T00:16:14.629Z,16.60
2023-04-25T00:18:47.361Z,18.13
2023-04-25T00:21:19.222Z,23.77
2023-04-25T00:23:48.769Z,20.37
2023-04-25T00:26:18.140Z,21.13
2023-04-25T00:28:47.176Z,20.80
2023-04-25T00:31:16.263Z,19.63
2023-04-25T00:33:45.313Z,16.70
2023-04-25T00:36:14.182Z,20.73
2023-04-25T00:38:45.193Z,23.40
2023-04-25T00:41:14.583Z,25.23
2023-04-25T00:43:43.992Z,17.00
2023-04-25T00:46:13.800Z,16.23
2023-04-25T00:48:42.867Z,16.87
2023-04-25T00:51:16.586Z,10.77
2023-04-25T00:53:48.412Z,24.30
2023-04-25T00:56:18.829Z,13.30
2023-04-25T00:58:48.220Z,15.43
2023-04-25T01:01:18.170Z,15.77
2023-04-25T01:04:12.504Z,16.90
2023-04-25T01:06:42.230Z,16.00
2023-04-25T01:09:12.556Z,17.97
2023-04-25T01:11:41.966Z,16.30
2023-04-25T01:14:10.910Z,10.60
2023-04-25T01:16:40.237Z,14.63
2023-04-25T01:19:13.648Z,17.10
2023-04-25T01:21:44.073Z,15.80
2023-04-25T01:24:13.889Z,23.50
2023-04-25T01:26:50.856Z,16.30
2023-04-25T01:29:25.859Z,16.63
2023-04-25T01:31:56.365Z,17.30
2023-04-25T01:34:25.418Z,25.03
2023-04-25T01:36:56.563Z,12.97
2023-04-25T01:39:26.530Z,19.80
2023-04-25T01:41:57.294Z,17.33
2023-04-25T01:44:27.227Z,16.90
2023-04-25T01:46:57.145Z,22.37
2023-04-25T01:49:26.766Z,13.97
2023-04-25T01:51:57.225Z,21.77
2023-04-25T01:54:26.621Z,20.10
2023-04-25T01:56:56.019Z,16.97
2023-04-25T01:59:25.223Z,17.93
2023-04-25T02:02:18.581Z,18.40
2023-04-25T02:04:47.824Z,20.90
2023-04-25T02:07:18.610Z,25.77
2023-04-25T02:09:52.692Z,24.90
2023-04-25T02:12:23.015Z,26.83
2023-04-25T02:15:16.569Z,22.37
2023-04-25T02:17:55.068Z,18.63
2023-04-25T02:20:25.678Z,25.43
2023-04-25T02:22:56.146Z,17.27
2023-04-25T02:25:25.584Z,23.57
2023-04-25T02:27:55.158Z,19.03
2023-04-25T02:30:24.233Z,21.70
2023-04-25T02:32:53.257Z,25.03
2023-04-25T02:35:22.563Z,26.47
2023-04-25T02:37:51.644Z,23.50
2023-04-25T02:40:22.170Z,23.87
2023-04-25T02:42:51.878Z,21.90
2023-04-25T02:45:21.655Z,22.13
2023-04-25T02:47:50.827Z,27.50
2023-04-25T02:50:22.090Z,19.23
2023-04-25T02:52:51.033Z,21.07
2023-04-25T02:55:28.519Z,23.20
2023-04-25T02:57:59.347Z,22.43
2023-04-25T03:00:45.181Z,23.20
2023-04-25T03:03:14.588Z,24.93
2023-04-25T03:05:43.843Z,22.27
2023-04-25T03:08:13.141Z,21.77
2023-04-25T03:10:43.789Z,23.03
2023-04-25T03:13:13.592Z,28.63
2023-04-25T03:15:44.721Z,19.87
2023-04-25T03:18:14.145Z,20.77
2023-04-25T03:20:44.067Z,20.93
2023-04-25T03:23:13.040Z,23.70
2023-04-25T03:25:46.115Z,22.23
2023-04-25T03:28:15.445Z,24.97
2023-04-25T03:30:44.443Z,25.43
2023-04-25T03:33:13.716Z,17.33
2023-04-25T03:35:43.752Z,21.87
2023-04-25T03:38:13.541Z,19.07
2023-04-25T03:40:43.399Z,27.27
2023-04-25T03:43:27.092Z,15.27
2023-04-25T03:46:04.719Z,17.60
2023-04-25T03:48:33.749Z,30.10
2023-04-25T03:51:02.786Z,22.13
2023-04-25T03:53:33.944Z,27.77
2023-04-25T03:56:18.677Z,20.13
2023-04-25T03:58:51.400Z,17.73
2023-04-25T04:01:47.639Z,22.63
2023-04-25T04:04:17.398Z,22.70
2023-04-25T04:06:47.064Z,21.77
2023-04-25T04:09:28.811Z,21.03
2023-04-25T04:11:59.528Z,24.33
2023-04-25T04:14:31.199Z,27.57
2023-04-25T04:17:00.544Z,17.10
2023-04-25T04:19:31.016Z,25.77
2023-04-25T04:22:12.706Z,23.53
2023-04-25T04:24:45.111Z,25.00
2023-04-25T04:27:16.672Z,23.13
2023-04-25T04:30:11.146Z,29.97
2023-04-25T04:32:50.868Z,27.70
2023-04-25T04:35:20.624Z,26.20
2023-04-25T04:37:49.514Z,24.53
2023-04-25T04:40:21.777Z,28.27
2023-04-25T04:42:59.116Z,28.77
2023-04-25T04:45:48.845Z,27.60
2023-04-25T04:48:26.906Z,32.80
2023-04-25T04:51:14.659Z,30.60
2023-04-25T04:54:09.734Z,29.83
2023-04-25T04:56:47.845Z,27.50
2023-04-25T04:59:19.729Z,27.37
2023-04-25T05:02:11.969Z,29.13
2023-04-25T05:04:55.597Z,27.10
2023-04-25T05:07:54.012Z,27.60
2023-04-25T05:10:46.313Z,23.50
2023-04-25T05:13:34.759Z,43.23
2023-04-25T05:16:17.832Z,30.87
2023-04-25T05:19:02.280Z,32.63
2023-04-25T05:21:47.902Z,29.93
2023-04-25T05:24:40.452Z,27.27
2023-04-25T05:27:28.764Z,23.53
2023-04-25T05:30:27.235Z,29.50
2023-04-25T05:33:25.767Z,25.80
2023-04-25T05:35:56.329Z,25.00
2023-04-25T05:38:27.163Z,24.37
2023-04-25T05:41:15.339Z,23.73
2023-04-25T05:43:51.029Z,28.20
2023-04-25T05:46:38.617Z,25.10
2023-04-25T05:49:23.626Z,29.13
2023-04-25T05:52:02.866Z,27.40
2023-04-25T05:54:58.361Z,37.40
2023-04-25T05:57:29.300Z,40.37
2023-04-25T05:59:59.465Z,28.77
2023-04-25T06:02:42.539Z,32.43
2023-04-25T06:05:14.510Z,32.17
2023-04-25T06:07:45.802Z,26.30
2023-04-25T06:10:14.920Z,35.00
2023-04-25T06:12:45.508Z,28.43
2023-04-25T06:15:27.909Z,33.87
2023-04-25T06:17:58.454Z,28.10
2023-04-25T06:20:27.609Z,42.17
2023-04-25T06:23:01.014Z,26.83
2023-04-25T06:25:57.062Z,29.20
2023-04-25T06:28:27.093Z,30.97
2023-04-25T06:30:56.113Z,27.50
2023-04-25T06:33:25.583Z,33.87
2023-04-25T06:35:56.746Z,37.67
2023-04-25T06:38:30.585Z,40.73
2023-04-25T06:41:00.292Z,36.87
2023-04-25T06:43:34.716Z,38.00
2023-04-25T06:46:22.249Z,27.83
2023-04-25T06:48:52.878Z,26.30
2023-04-25T06:51:24.333Z,30.50
2023-04-25T06:53:57.742Z,30.17
2023-04-25T06:56:40.562Z,40.90
2023-04-25T06:59:17.329Z,27.77
2023-04-25T07:01:48.627Z,39.50
2023-04-25T07:04:21.257Z,42.23
2023-04-25T07:06:57.536Z,32.40
2023-04-25T07:09:36.223Z,36.10
2023-04-25T07:12:05.874Z,40.47
2023-04-25T07:14:36.319Z,43.73
2023-04-25T07:17:07.877Z,27.57
2023-04-25T07:19:39.226Z,37.10
2023-04-25T07:22:08.977Z,32.50
2023-04-25T07:24:42.577Z,29.67
2023-04-25T07:27:15.580Z,32.77
2023-04-25T07:30:14.823Z,43.73
2023-04-25T07:32:44.138Z,48.20
2023-04-25T07:35:13.590Z,36.00
2023-04-25T07:37:43.367Z,36.70
2023-04-25T07:40:19.959Z,36.33
2023-04-25T07:42:53.101Z,52.50
2023-04-25T07:45:31.967Z,45.83
2023-04-25T07:48:01.455Z,46.97
2023-04-25T07:50:32.746Z,35.33
2023-04-25T07:53:01.797Z,40.47
2023-04-25T07:55:41.306Z,37.40
2023-04-25T07:58:16.523Z,37.47
2023-04-25T08:00:48.463Z,42.73
2023-04-25T08:03:32.327Z,34.73
2023-04-25T08:06:05.694Z,51.93
2023-04-25T08:08:43.165Z,32.23
2023-04-25T08:11:17.269Z,32.57
2023-04-25T08:13:46.403Z,45.53
2023-04-25T08:16:15.770Z,28.93
2023-04-25T08:18:45.080Z,40.00
2023-04-25T08:21:15.565Z,38.60
2023-04-25T08:23:44.695Z,30.73
2023-04-25T08:26:27.101Z,39.43
2023-04-25T08:28:56.883Z,36.20
2023-04-25T08:31:26.454Z,41.57
2023-04-25T08:34:00.750Z,31.27
2023-04-25T08:36:39.707Z,36.53
2023-04-25T08:39:30.078Z,35.10
2023-04-25T08:42:25.799Z,33.13
2023-04-25T08:44:56.684Z,41.63
2023-04-25T08:47:32.893Z,39.43
2023-04-25T08:50:04.496Z,35.43
2023-04-25T08:52:38.656Z,33.23
2023-04-25T08:55:12.073Z,36.60
2023-04-25T08:57:45.187Z,35.60
2023-04-25T09:00:15.664Z,30.63
2023-04-25T09:02:46.953Z,28.73
2023-04-25T09:05:17.031Z,35.43
2023-04-25T09:07:49.198Z,33.90
2023-04-25T09:10:20.764Z,25.20
2023-04-25T09:13:07.137Z,35.03
2023-04-25T09:15:53.597Z,31.97
2023-04-25T09:18:48.363Z,26.33
2023-04-25T09:21:18.234Z,27.83
2023-04-25T09:23:53.310Z,22.43
2023-04-25T09:26:24.096Z,30.83
2023-04-25T09:29:08.631Z,32.83
2023-04-25T09:31:41.757Z,30.73
2023-04-25T09:34:17.116Z,24.20
2023-04-25T09:36:53.162Z,42.10
2023-04-25T09:39:43.185Z,28.10
2023-04-25T09:42:17.563Z,31.23
2023-04-25T09:44:49.550Z,33.03
2023-04-25T09:47:19.191Z,28.97
2023-04-25T09:49:48.502Z,28.87
2023-04-25T09:52:19.552Z,38.43
2023-04-25T09:54:58.410Z,32.57
2023-04-25T09:57:33.391Z,35.17
2023-04-25T10:00:10.919Z,29.03
2023-04-25T10:02:48.579Z,27.13
2023-04-25T10:05:47.022Z,27.33
2023-04-25T10:08:17.728Z,32.47
2023-04-25T10:10:48.124Z,23.50
2023-04-25T10:13:17.612Z,28.50
2023-04-25T10:15:49.895Z,26.63
2023-04-25T10:18:21.038Z,28.73
2023-04-25T10:20:50.695Z,26.63
2023-04-25T10:23:21.085Z,27.13
2023-04-25T10:25:52.137Z,28.73
2023-04-25T10:28:22.026Z,24.93
2023-04-25T10:31:04.082Z,19.53
2023-04-25T10:33:36.544Z,23.80
2023-04-25T10:36:14.055Z,17.80
2023-04-25T10:38:45.118Z,20.60
2023-04-25T10:41:15.268Z,19.40
2023-04-25T10:43:45.572Z,24.43
2023-04-25T10:46:25.037Z,19.70
2023-04-25T10:48:55.534Z,27.57
2023-04-25T10:51:26.505Z,22.30
2023-04-25T10:54:03.618Z,22.83
2023-04-25T10:56:34.374Z,20.13
2023-04-25T10:59:10.713Z,17.77
2023-04-25T11:21:34.117Z,27.43
2023-04-25T11:24:03.996Z,27.10
2023-04-25T11:26:33.204Z,29.03
2023-04-25T11:29:02.945Z,36.43
2023-04-25T11:31:32.335Z,15.00
2023-04-25T11:34:03.873Z,26.20
2023-04-25T11:36:33.473Z,20.50
2023-04-25T11:39:03.033Z,24.43
2023-04-25T11:41:33.351Z,20.07
2023-04-25T11:44:02.344Z,10.30
2023-04-25T11:46:31.486Z,16.33
2023-04-25T11:49:00.784Z,15.57
2023-04-25T11:51:31.482Z,22.20
2023-04-25T11:54:00.678Z,22.53
2023-04-25T11:56:29.855Z,20.97
2023-04-25T11:59:00.722Z,19.53
2023-04-25T12:01:44.741Z,21.93
2023-04-25T12:04:15.532Z,14.83
2023-04-25T12:06:49.152Z,23.20
2023-04-25T12:09:20.370Z,17.50
2023-04-25T12:11:50.388Z,14.27
2023-04-25T12:14:28.273Z,21.07
2023-04-25T12:16:59.609Z,11.57
2023-04-25T12:19:34.082Z,16.67
2023-04-25T12:22:05.319Z,14.43
2023-04-25T12:24:39.104Z,13.10
2023-04-25T12:27:10.223Z,15.00
2023-04-25T12:29:49.592Z,17.10
2023-04-25T12:32:20.016Z,16.40
2023-04-25T12:34:49.243Z,12.87
2023-04-25T12:37:20.053Z,17.77
2023-04-25T12:39:49.499Z,14.90
2023-04-25T12:42:18.767Z,15.60
2023-04-25T12:44:48.450Z,13.67
2023-04-25T12:47:17.418Z,14.77
2023-04-25T12:49:46.645Z,14.73
2023-04-25T12:52:15.658Z,12.63
2023-04-25T12:54:46.410Z,11.87
2023-04-25T12:57:15.513Z,23.17
2023-04-25T12:59:44.570Z,11.97
2023-04-25T13:02:13.756Z,21.30
2023-04-25T13:04:43.057Z,17.20
2023-04-25T13:07:12.215Z,21.40
2023-04-25T13:09:41.452Z,18.97
2023-04-25T13:12:12.222Z,19.07
2023-04-25T13:14:41.269Z,12.57
2023-04-25T13:17:10.617Z,14.33
2023-04-25T13:19:40.081Z,19.20
2023-04-25T13:22:09.064Z,12.13
2023-04-25T13:24:38.383Z,13.70
2023-04-25T13:27:07.355Z,19.10
2023-04-25T13:29:39.641Z,21.90
2023-04-25T13:32:08.896Z,13.53
2023-04-25T13:34:37.662Z,10.50
2023-04-25T13:37:07.641Z,10.83
2023-04-25T13:39:36.457Z,14.70
2023-04-25T13:42:06.200Z,14.43
2023-04-25T13:44:35.183Z,19.03
2023-04-25T13:47:06.571Z,14.63
2023-04-25T13:49:35.910Z,13.43
2023-04-25T13:52:05.070Z,17.00
2023-04-25T13:54:34.625Z,20.57
2023-04-25T13:57:03.884Z,24.53
2023-04-25T13:59:33.177Z,11.60
2023-04-25T14:02:02.536Z,17.57
2023-04-25T14:04:34.069Z,14.37
2023-04-25T14:07:03.727Z,12.40
2023-04-25T14:09:33.044Z,10.40
2023-04-25T14:12:03.249Z,13.73
2023-04-25T14:14:32.316Z,9.77
2023-04-25T14:17:01.605Z,9.57
2023-04-25T14:19:31.000Z,11.27
2023-04-25T14:22:01.785Z,12.67
2023-04-25T14:24:30.770Z,19.90
2023-04-25T14:26:59.885Z,14.43
2023-04-25T14:29:31.283Z,12.20
2023-04-25T14:32:01.244Z,20.20
2023-04-25T14:34:30.445Z,17.77
2023-04-25T14:37:01.594Z,13.93
2023-04-25T14:39:30.833Z,20.70
2023-04-25T14:42:00.229Z,16.43
2023-04-25T14:44:29.410Z,15.37
2023-04-25T14:46:59.699Z,13.40
2023-04-25T14:49:29.563Z,17.27
2023-04-25T14:51:59.126Z,17.87
2023-04-25T14:54:29.746Z,17.87
2023-04-25T14:56:59.310Z,16.73
2023-04-25T14:59:29.260Z,13.77
2023-04-25T15:01:59.895Z,18.00
2023-04-25T15:04:29.290Z,17.93
2023-04-25T15:06:58.699Z,20.90
2023-04-25T15:09:29.726Z,14.57
2023-04-25T15:12:00.044Z,13.63
2023-04-25T15:14:29.200Z,15.07
2023-04-25T15:16:58.925Z,19.30
2023-04-25T15:19:29.368Z,17.20
2023-04-25T15:22:01.628Z,17.33
2023-04-25T15:24:32.543Z,22.03
2023-04-25T15:27:01.853Z,15.97
2023-04-25T15:29:31.279Z,14.37
2023-04-25T15:32:00.376Z,17.83
2023-04-25T15:34:29.289Z,19.43
2023-04-25T15:36:58.953Z,17.50
2023-04-25T15:39:28.104Z,14.73
2023-04-25T15:41:59.243Z,18.50
2023-04-25T15:44:28.853Z,20.40
2023-04-25T15:46:57.944Z,16.77
2023-04-25T15:49:27.359Z,21.30
2023-04-25T15:51:56.456Z,16.97
2023-04-25T15:54:25.648Z,18.53
2023-04-25T15:56:54.586Z,16.97
2023-04-25T15:59:25.565Z,17.70
2023-04-25T16:01:54.874Z,19.13
2023-04-25T16:04:25.531Z,12.37
2023-04-25T16:06:54.809Z,15.20
2023-04-25T16:09:23.952Z,14.57
2023-04-25T16:11:53.236Z,20.10
2023-04-25T16:14:22.449Z,25.30
2023-04-25T16:16:53.551Z,17.03
2023-04-25T16:19:23.406Z,12.37
2023-04-25T16:21:52.768Z,13.53
2023-04-25T16:24:22.251Z,12.40
2023-04-25T16:26:54.268Z,12.90
2023-04-25T16:29:23.586Z,10.03
2023-04-25T16:31:54.297Z,14.93
2023-04-25T16:34:23.655Z,15.50
2023-04-25T16:36:54.467Z,13.93
2023-04-25T16:39:25.263Z,17.33
2023-04-25T16:41:54.574Z,15.73
2023-04-25T16:44:23.529Z,11.93
2023-04-25T16:46:53.865Z,16.00
2023-04-25T16:49:23.279Z,17.70
2023-04-25T16:51:52.364Z,15.40
2023-04-25T16:54:21.750Z,13.23
2023-04-25T16:56:51.064Z,15.00
2023-04-25T16:59:20.726Z,21.97
2023-04-25T17:01:50.163Z,14.67
2023-04-25T17:04:21.382Z,13.33
2023-04-25T17:06:50.600Z,12.10
2023-04-25T17:09:19.772Z,19.83
2023-04-25T17:11:50.165Z,10.10
2023-04-25T17:14:19.498Z,13.97
2023-04-25T17:16:49.798Z,10.87
2023-04-25T17:19:22.116Z,13.57
2023-04-25T17:21:51.985Z,9.30
2023-04-25T17:24:22.142Z,24.80
2023-04-25T17:26:51.542Z,12.73
2023-04-25T17:29:21.849Z,13.60
2023-04-25T17:31:51.474Z,13.73
2023-04-25T17:34:22.455Z,12.50
2023-04-25T17:36:51.475Z,16.57
2023-04-25T17:39:21.657Z,13.03
2023-04-25T17:41:50.750Z,14.07
2023-04-25T17:44:20.580Z,11.20
2023-04-25T17:46:49.721Z,13.57
2023-04-25T17:49:18.823Z,13.73
2023-04-25T17:51:49.493Z,14.17
2023-04-25T17:54:18.784Z,16.40
2023-04-25T17:56:48.331Z,13.23
2023-04-25T17:59:17.524Z,13.50
2023-04-25T18:01:48.204Z,11.63
2023-04-25T18:04:17.816Z,12.10
2023-04-25T18:06:48.243Z,18.37
2023-04-25T18:09:17.780Z,17.23
2023-04-25T18:11:48.299Z,16.83
2023-04-25T18:14:17.897Z,15.00
2023-04-25T18:16:47.348Z,14.83
2023-04-25T18:19:21.540Z,16.03
2023-04-25T18:21:54.536Z,21.37
2023-04-25T18:24:27.260Z,17.63
2023-04-25T18:27:00.315Z,15.87
2023-04-25T18:29:33.726Z,12.93
2023-04-25T18:32:05.072Z,18.00
2023-04-25T18:34:34.925Z,17.40
2023-04-25T18:37:05.220Z,22.73
2023-04-25T18:39:34.658Z,22.13
2023-04-25T18:42:06.959Z,23.50
2023-04-25T18:44:40.206Z,22.90
2023-04-25T18:47:10.616Z,25.33
2023-04-25T18:49:39.602Z,18.07
2023-04-25T18:52:12.522Z,22.43
2023-04-25T18:54:42.637Z,22.43
2023-04-25T18:57:14.701Z,20.03
2023-04-25T18:59:45.655Z,21.10
2023-04-25T19:02:16.470Z,27.37
2023-04-25T19:04:47.042Z,22.43
2023-04-25T19:07:17.805Z,19.87
2023-04-25T19:09:47.183Z,20.53
2023-04-25T19:12:16.907Z,17.43
2023-04-25T19:14:46.122Z,21.33
2023-04-25T19:17:15.164Z,19.07
2023-04-25T19:19:44.277Z,18.57
2023-04-25T19:22:14.294Z,15.70
2023-04-25T19:24:44.674Z,16.80
2023-04-25T19:27:14.426Z,21.23
2023-04-25T19:29:48.404Z,28.03
2023-04-25T19:32:18.100Z,20.73
2023-04-25T19:34:48.434Z,21.20
2023-04-25T19:37:17.614Z,17.17
2023-04-25T19:39:48.663Z,17.57
2023-04-25T19:42:19.365Z,17.90
2023-04-25T19:44:48.617Z,13.23
2023-04-25T19:47:17.904Z,12.57
2023-04-25T19:49:47.549Z,19.90
2023-04-25T19:52:17.773Z,12.40
2023-04-25T19:54:48.504Z,14.50
2023-04-25T19:57:17.665Z,14.03
2023-04-25T19:59:48.245Z,14.60
2023-04-25T20:02:18.738Z,15.83
2023-04-25T20:04:47.810Z,10.57
2023-04-25T20:07:16.904Z,13.50
2023-04-25T20:09:45.785Z,11.10
2023-04-25T20:12:16.473Z,13.27
2023-04-25T20:14:45.821Z,9.33
2023-04-25T20:17:15.283Z,17.17
2023-04-25T20:19:44.377Z,9.70
2023-04-25T20:22:13.358Z,12.13
2023-04-25T20:24:42.681Z,9.40
2023-04-25T20:27:11.749Z,12.80
2023-04-25T20:29:42.839Z,12.30
2023-04-25T20:32:12.655Z,9.97
2023-04-25T20:34:42.321Z,18.13
2023-04-25T20:37:11.431Z,16.57
2023-04-25T20:39:40.349Z,12.13
2023-04-25T20:42:09.602Z,14.50
2023-04-25T20:44:40.876Z,12.80
2023-04-25T20:47:11.994Z,8.93
2023-04-25T20:49:40.906Z,15.23
2023-04-25T20:52:09.818Z,8.47
2023-04-25T20:54:39.081Z,8.93
2023-04-25T20:57:07.927Z,11.80
2023-04-25T20:59:37.517Z,12.57
2023-04-25T21:02:06.354Z,9.40
2023-04-25T21:04:36.702Z,12.80
2023-04-25T21:07:06.131Z,11.43
2023-04-25T21:09:35.043Z,9.13
2023-04-25T21:12:04.504Z,9.67
2023-04-25T21:14:34.277Z,7.37
2023-04-25T21:17:04.455Z,8.10
2023-04-25T21:19:34.212Z,8.63
2023-04-25T21:22:04.570Z,13.53
2023-04-25T21:24:34.899Z,12.37
2023-04-25T21:27:03.820Z,8.00
2023-04-25T21:29:33.160Z,11.70
2023-04-25T21:32:02.559Z,10.13
2023-04-25T21:34:32.142Z,11.87
2023-04-25T21:37:01.282Z,9.23
2023-04-25T21:39:31.755Z,11.17
2023-04-25T21:42:01.982Z,8.53
2023-04-25T21:44:31.334Z,8.07
2023-04-25T21:47:00.548Z,9.50
2023-04-25T21:49:29.964Z,8.30
2023-04-25T21:51:59.053Z,9.83
2023-04-25T21:54:28.193Z,11.50
2023-04-25T21:56:58.627Z,10.60
2023-04-25T21:59:27.614Z,11.23
2023-04-25T22:01:56.665Z,6.90
2023-04-25T22:04:25.839Z,9.60
2023-04-25T22:06:55.317Z,9.67
2023-04-25T22:09:24.681Z,9.03
2023-04-25T22:11:54.724Z,12.53
2023-04-25T22:14:26.858Z,11.60
2023-04-25T22:16:56.100Z,9.53
2023-04-25T22:19:25.031Z,8.13
2023-04-25T22:21:54.018Z,12.10
2023-04-25T22:24:23.004Z,8.53
2023-04-25T22:26:52.552Z,6.40
2023-04-25T22:29:22.087Z,10.80
2023-04-25T22:31:53.206Z,7.10
2023-04-25T22:34:22.512Z,8.27
2023-04-25T22:36:51.480Z,8.30
2023-04-25T22:39:20.610Z,6.93
2023-04-25T22:41:49.765Z,13.30
2023-04-25T22:44:18.859Z,6.73
2023-04-25T22:46:47.816Z,7.77
2023-04-25T22:49:18.734Z,7.47
2023-04-25T22:51:49.156Z,9.20
2023-04-25T22:54:18.444Z,6.93
2023-04-25T22:56:47.451Z,5.77
2023-04-25T22:59:16.355Z,7.33
2023-04-25T23:01:45.665Z,11.90
2023-04-25T23:04:16.851Z,6.77
2023-04-25T23:06:47.925Z,6.20
2023-04-25T23:09:17.426Z,7.47
2023-04-25T23:11:47.071Z,13.20
2023-04-25T23:14:16.495Z,9.27
2023-04-25T23:16:45.848Z,9.37
2023-04-25T23:19:14.996Z,8.40
2023-04-25T23:21:44.121Z,11.27
2023-04-25T23:24:14.977Z,6.97
2023-04-25T23:26:44.317Z,6.83
2023-04-25T23:29:13.105Z,14.80
2023-04-25T23:31:42.323Z,8.00
2023-04-25T23:34:11.381Z,6.07
2023-04-25T23:36:40.562Z,6.20
2023-04-25T23:39:10.701Z,7.27
2023-04-25T23:41:41.492Z,9.70
2023-04-25T23:44:10.951Z,7.30
2023-04-25T23:46:40.162Z,7.07
2023-04-25T23:49:09.968Z,5.87
2023-04-25T23:51:38.716Z,7.30
2023-04-25T23:54:08.456Z,6.43
2023-04-25T23:56:37.425Z,4.20
2023-04-25T23:59:09.137Z,7.80
